Terminal Aerodrome Forecast
Issued by NWS

Home | Current Version | Previous Version | Text Only | Print | Product List | Glossary On
Versions: 1 2 3 4 5 6 7 8 9 10 11 12 13 14 15
000
FTAK31 PAJN 261700
TAFAPG
TAF
PAPG 261737Z 2618/2718 23005KT P6SM BCFG FEW015 BKN050
     FM262100 VRB05KT P6SM SCT040 BKN100
     FM270300 30004KT 6SM BCFG SCT010 BKN100
     FM271500 VRB05KT P6SM SCT010 BKN100
      AMD LTD TO CLD VIS AND WIND 2706/2715=

USA.gov is the U.S. government's official web portal to all federal, state and local government web resources and services.